Time;durP1;ratioP1;P1;durP2;ratioP2;P2;SDS_P1;SDS_P2;PMS_P1;PMS_P2;Temp;Humidity;BMP_temperature;BMP_pressure;BME280_temperature;BME280_humidity;BME280_pressure;Samples;Min_cycle;Max_cycle;Signal;HPM_P1;HPM_P2
2022/06/08 00:01:14;;;;;;;;;;;20.10;70.60;;;;;;5050330;28;838;-70
2022/06/08 00:03:46;;;;;;;;;;;20.10;70.60;;;;;;5050748;28;1906;-70
2022/06/08 00:06:12;;;;;;;;;;;20.10;70.60;;;;;;5051526;28;1228;-70
2022/06/08 00:08:38;;;;;;;;;;;20.10;70.60;;;;;;5048103;28;1119;-70
2022/06/08 00:11:03;;;;;;;;;;;20.10;70.60;;;;;;5033905;28;862;-70
2022/06/08 00:13:29;;;;;;;;;;;20.10;70.60;;;;;;5052233;28;922;-70
2022/06/08 00:15:54;;;;;;;;;;;20.10;70.60;;;;;;5051908;28;1284;-70
2022/06/08 00:18:20;;;;;;;;;;;20.10;70.60;;;;;;5034017;28;1207;-70
2022/06/08 00:20:45;;;;;;;;;;;20.10;70.60;;;;;;5050783;28;954;-70
2022/06/08 00:23:11;;;;;;;;;;;20.10;70.60;;;;;;5051973;28;1037;-70
2022/06/08 00:25:36;;;;;;;;;;;20.10;70.60;;;;;;5052200;28;1891;-70
2022/06/08 00:28:02;;;;;;;;;;;20.10;70.60;;;;;;5017730;28;927;-70
2022/06/08 00:30:27;;;;;;;;;;;20.10;70.60;;;;;;5033920;28;1057;-71
2022/06/08 00:32:53;;;;;;;;;;;20.10;70.60;;;;;;5052134;28;846;-70
2022/06/08 00:35:18;;;;;;;;;;;20.10;70.60;;;;;;5033868;28;1203;-70
2022/06/08 00:37:44;;;;;;;;;;;20.10;70.60;;;;;;5052122;28;871;-71
2022/06/08 00:40:10;;;;;;;;;;;20.10;70.60;;;;;;5051508;28;811;-70
2022/06/08 00:42:35;;;;;;;;;;;20.10;70.50;;;;;;5034381;28;816;-70
2022/06/08 00:45:05;;;;;;;;;;;20.10;70.50;;;;;;5035831;28;1894;-70
2022/06/08 00:47:31;;;;;;;;;;;20.10;70.60;;;;;;5034305;28;1284;-70
2022/06/08 00:49:57;;;;;;;;;;;20.10;70.60;;;;;;5049712;28;883;-71
2022/06/08 00:52:23;;;;;;;;;;;20.10;70.50;;;;;;5046281;28;1292;-72
2022/06/08 00:54:50;;;;;;;;;;;20.10;70.60;;;;;;5039624;28;1358;-71
2022/06/08 00:57:26;;;;;;;;;;;20.10;70.60;;;;;;5034510;28;1284;-71
2022/06/08 00:59:55;;;;;;;;;;;20.10;70.60;;;;;;5033704;28;807;-71
2022/06/08 01:02:21;;;;;;;;;;;20.10;70.60;;;;;;5033975;28;1045;-71
2022/06/08 01:04:46;;;;;;;;;;;20.10;70.60;;;;;;5017036;28;1898;-70
2022/06/08 01:07:14;;;;;;;;;;;20.10;70.50;;;;;;5051924;28;1193;-70
2022/06/08 01:09:39;;;;;;;;;;;20.10;70.60;;;;;;5019637;28;1182;-71
2022/06/08 01:12:09;;;;;;;;;;;20.10;70.50;;;;;;5013735;28;946;-71
2022/06/08 01:14:35;;;;;;;;;;;20.10;70.60;;;;;;5014106;28;780;-70
2022/06/08 01:17:07;;;;;;;;;;;20.10;70.50;;;;;;5031682;28;1292;-70
2022/06/08 01:19:33;;;;;;;;;;;20.10;71.30;;;;;;5024466;28;1214;-69
2022/06/08 01:21:59;;;;;;;;;;;20.10;70.60;;;;;;5031607;28;792;-69
2022/06/08 01:24:25;;;;;;;;;;;20.10;70.50;;;;;;5034389;28;1949;-70
2022/06/08 01:26:59;;;;;;;;;;;20.10;70.50;;;;;;5035324;28;1289;-69
2022/06/08 01:29:26;;;;;;;;;;;20.10;70.60;;;;;;5037929;28;1247;-69
2022/06/08 01:32:11;;;;;;;;;;;20.10;70.60;;;;;;5019146;28;1168;-70
2022/06/08 01:34:48;;;;;;;;;;;20.10;70.60;;;;;;5042635;28;1200;-71
2022/06/08 01:37:32;;;;;;;;;;;20.10;70.60;;;;;;5041685;28;1243;-69
2022/06/08 01:40:02;;;;;;;;;;;20.10;70.60;;;;;;5024324;28;1212;-69
2022/06/08 01:42:34;;;;;;;;;;;20.10;70.60;;;;;;5022642;28;1184;-70
2022/06/08 01:45:29;;;;;;;;;;;20.10;70.60;;;;;;5024836;28;1906;-69
2022/06/08 01:48:10;;;;;;;;;;;20.10;70.60;;;;;;5036483;28;1273;-72
2022/06/08 01:50:50;;;;;;;;;;;20.10;70.60;;;;;;5021577;28;1275;-70
2022/06/08 01:53:25;;;;;;;;;;;20.10;70.60;;;;;;5007480;28;1350;-73
2022/06/08 01:55:53;;;;;;;;;;;20.10;70.60;;;;;;5021350;28;1233;-70
2022/06/08 01:58:23;;;;;;;;;;;20.10;70.60;;;;;;5017298;28;847;-70
2022/06/08 02:00:52;;;;;;;;;;;20.10;70.60;;;;;;5016306;28;891;-72
2022/06/08 02:03:24;;;;;;;;;;;20.10;70.60;;;;;;5017092;28;858;-70
2022/06/08 02:05:54;;;;;;;;;;;20.10;70.60;;;;;;5034059;28;1898;-70
2022/06/08 02:08:31;;;;;;;;;;;20.10;70.60;;;;;;5020280;28;1115;-71
2022/06/08 02:10:57;;;;;;;;;;;20.10;70.60;;;;;;5036344;28;851;-70
2022/06/08 02:13:35;;;;;;;;;;;20.10;70.60;;;;;;5053885;28;1255;-70
2022/06/08 02:16:03;;;;;;;;;;;20.10;70.60;;;;;;5034217;28;1382;-70
2022/06/08 02:18:29;;;;;;;;;;;20.10;70.60;;;;;;5036598;28;1182;-71
2022/06/08 02:20:56;;;;;;;;;;;20.10;70.60;;;;;;5035582;28;797;-70
2022/06/08 02:23:35;;;;;;;;;;;20.10;70.60;;;;;;5036675;28;998;-71
2022/06/08 02:26:02;;;;;;;;;;;20.10;70.60;;;;;;5036396;28;1989;-70
2022/06/08 02:28:33;;;;;;;;;;;20.10;70.60;;;;;;5036655;28;923;-71
2022/06/08 02:31:02;;;;;;;;;;;20.10;70.60;;;;;;5018756;28;1470;-70
2022/06/08 02:36:15;;;;;;;;;;;20.10;70.60;;;;;;5038656;28;1382;-70
2022/06/08 02:38:40;;;;;;;;;;;20.10;70.60;;;;;;5036233;28;827;-71
2022/06/08 02:41:07;;;;;;;;;;;20.10;70.60;;;;;;5035695;28;1009;-70
2022/06/08 02:43:34;;;;;;;;;;;20.10;70.50;;;;;;5035983;28;823;-70
2022/06/08 02:46:04;;;;;;;;;;;20.10;70.50;;;;;;5035778;28;1926;-70
2022/06/08 02:48:29;;;;;;;;;;;20.10;70.50;;;;;;5035876;28;808;-70
2022/06/08 02:50:56;;;;;;;;;;;20.10;70.60;;;;;;5053368;28;1025;-70
2022/06/08 02:53:22;;;;;;;;;;;20.10;70.60;;;;;;5053741;28;946;-71
2022/06/08 02:56:03;;;;;;;;;;;20.10;70.50;;;;;;5053659;28;1279;-71
2022/06/08 02:58:29;;;;;;;;;;;20.10;70.60;;;;;;5050271;28;1844;-72
2022/06/08 03:01:00;;;;;;;;;;;20.10;70.60;;;;;;5051894;28;1081;-70
2022/06/08 03:03:31;;;;;;;;;;;20.10;70.50;;;;;;5033509;28;1744;-71
2022/06/08 03:05:59;;;;;;;;;;;20.10;70.50;;;;;;5033232;28;1906;-70
2022/06/08 03:08:32;;;;;;;;;;;20.10;70.60;;;;;;5033859;28;1254;-71
2022/06/08 03:10:58;;;;;;;;;;;20.10;70.60;;;;;;5033763;28;1219;-71
2022/06/08 03:13:31;;;;;;;;;;;20.10;70.60;;;;;;5034202;28;1330;-70
2022/06/08 03:15:57;;;;;;;;;;;20.10;70.60;;;;;;5033504;28;1288;-70
2022/06/08 03:18:23;;;;;;;;;;;20.10;70.60;;;;;;5033046;28;1220;-71
2022/06/08 03:20:48;;;;;;;;;;;20.10;70.60;;;;;;5051457;28;1286;-71
2022/06/08 03:23:14;;;;;;;;;;;20.10;70.60;;;;;;5053249;28;1310;-73
2022/06/08 03:25:39;;;;;;;;;;;20.10;70.50;;;;;;5035586;28;1947;-69
2022/06/08 03:28:05;;;;;;;;;;;20.10;70.60;;;;;;5033739;28;1224;-69
2022/06/08 03:30:30;;;;;;;;;;;20.10;70.60;;;;;;5050811;28;1259;-69
2022/06/08 03:32:56;;;;;;;;;;;20.10;70.60;;;;;;5017631;28;1216;-71
2022/06/08 03:35:21;;;;;;;;;;;20.10;70.50;;;;;;5034407;28;1342;-72
2022/06/08 03:37:49;;;;;;;;;;;20.10;70.60;;;;;;5019738;28;1291;-71
2022/06/08 03:40:14;;;;;;;;;;;20.10;70.60;;;;;;5018684;28;1224;-72
2022/06/08 03:42:40;;;;;;;;;;;20.10;70.60;;;;;;5035880;28;812;-71
2022/06/08 03:45:05;;;;;;;;;;;20.10;70.50;;;;;;5034523;28;1902;-72
2022/06/08 03:47:33;;;;;;;;;;;20.10;70.60;;;;;;5034944;28;856;-70
2022/06/08 03:49:59;;;;;;;;;;;20.10;70.60;;;;;;5034579;28;792;-71
2022/06/08 03:52:25;;;;;;;;;;;20.10;70.50;;;;;;5034713;28;745;-71
2022/06/08 03:54:53;;;;;;;;;;;20.10;70.60;;;;;;5035037;28;792;-71
2022/06/08 03:57:19;;;;;;;;;;;20.10;70.60;;;;;;5053854;22;3833;-69
2022/06/08 03:59:45;;;;;;;;;;;20.10;70.60;;;;;;5033439;28;838;-69
2022/06/08 04:02:11;;;;;;;;;;;20.10;70.60;;;;;;5015170;28;1360;-69
2022/06/08 04:04:36;;;;;;;;;;;20.10;70.60;;;;;;5031730;28;1922;-69
2022/06/08 04:07:02;;;;;;;;;;;20.10;70.50;;;;;;5031730;28;1717;-69
2022/06/08 04:09:27;;;;;;;;;;;20.10;70.60;;;;;;5060854;28;1135;-70
2022/06/08 04:11:53;;;;;;;;;;;20.10;70.50;;;;;;5065649;28;1332;-69
2022/06/08 04:14:18;;;;;;;;;;;20.10;70.60;;;;;;5049739;28;1112;-69
2022/06/08 04:16:44;;;;;;;;;;;20.10;70.60;;;;;;5052684;28;1387;-69
2022/06/08 04:19:09;;;;;;;;;;;20.10;70.60;;;;;;5052754;28;1099;-69
2022/06/08 04:21:35;;;;;;;;;;;20.10;70.50;;;;;;5052582;28;2168;-70
2022/06/08 04:24:00;;;;;;;;;;;20.10;70.60;;;;;;5051301;28;1906;-69
2022/06/08 04:26:26;;;;;;;;;;;20.10;70.60;;;;;;5052643;28;1265;-69
2022/06/08 04:28:51;;;;;;;;;;;20.10;70.60;;;;;;5067985;28;946;-69
2022/06/08 04:31:17;;;;;;;;;;;20.10;70.60;;;;;;5068205;28;824;-69
2022/06/08 04:33:42;;;;;;;;;;;20.10;70.50;;;;;;5052717;28;894;-70
2022/06/08 04:36:08;;;;;;;;;;;20.10;70.60;;;;;;5052893;28;1216;-70
2022/06/08 04:38:33;;;;;;;;;;;20.10;70.50;;;;;;5068176;28;1128;-70
2022/06/08 04:40:59;;;;;;;;;;;20.10;70.50;;;;;;5067880;28;947;-70
2022/06/08 04:43:24;;;;;;;;;;;20.10;70.60;;;;;;5052454;28;917;-70
2022/06/08 04:45:50;;;;;;;;;;;20.10;70.50;;;;;;5052421;28;1898;-70
2022/06/08 04:48:15;;;;;;;;;;;20.10;70.50;;;;;;5052482;28;871;-70
2022/06/08 04:50:41;;;;;;;;;;;20.10;70.60;;;;;;5067788;28;858;-69
2022/06/08 04:53:06;;;;;;;;;;;20.10;70.50;;;;;;5068149;28;934;-69
2022/06/08 04:55:32;;;;;;;;;;;20.10;70.50;;;;;;5067883;28;914;-69
2022/06/08 04:57:58;;;;;;;;;;;20.10;70.50;;;;;;5054246;28;1256;-69
2022/06/08 05:00:24;;;;;;;;;;;20.10;70.50;;;;;;5056021;28;889;-68
2022/06/08 05:02:49;;;;;;;;;;;20.10;70.50;;;;;;5056383;28;1597;-68
2022/06/08 05:05:16;;;;;;;;;;;20.10;70.50;;;;;;5056221;28;1957;-68
2022/06/08 05:07:42;;;;;;;;;;;20.10;70.50;;;;;;5056204;28;1163;-68
2022/06/08 05:10:08;;;;;;;;;;;20.10;70.60;;;;;;5038107;28;1304;-68
2022/06/08 05:12:36;;;;;;;;;;;20.10;70.50;;;;;;5038166;28;875;-68
2022/06/08 05:15:05;;;;;;;;;;;20.10;70.60;;;;;;5056152;28;910;-69
2022/06/08 05:17:31;;;;;;;;;;;20.10;70.50;;;;;;5056205;28;1263;-69
2022/06/08 05:19:57;;;;;;;;;;;20.10;70.50;;;;;;5055748;28;1282;-69
2022/06/08 05:22:22;;;;;;;;;;;20.10;70.00;;;;;;5055931;28;1060;-70
2022/06/08 05:24:48;;;;;;;;;;;20.10;69.70;;;;;;5055828;28;1957;-70
2022/06/08 05:27:13;;;;;;;;;;;20.10;69.20;;;;;;5037058;28;2190;-71
2022/06/08 05:29:39;;;;;;;;;;;20.10;69.10;;;;;;5046733;28;1728;-70
2022/06/08 05:32:04;;;;;;;;;;;20.10;68.70;;;;;;5051734;28;1137;-69
2022/06/08 05:34:30;;;;;;;;;;;20.10;69.20;;;;;;5047794;28;959;-69
2022/06/08 05:36:55;;;;;;;;;;;20.10;68.20;;;;;;5054285;28;1224;-71
2022/06/08 05:39:21;;;;;;;;;;;20.10;68.30;;;;;;5054644;28;858;-71
2022/06/08 05:41:46;;;;;;;;;;;20.10;68.00;;;;;;5054087;28;1076;-71
2022/06/08 05:44:12;;;;;;;;;;;20.10;67.70;;;;;;5054455;28;1902;-69
2022/06/08 05:46:37;;;;;;;;;;;20.10;67.50;;;;;;5054502;28;1192;-69
2022/06/08 05:49:03;;;;;;;;;;;20.00;67.10;;;;;;5054487;28;934;-69
2022/06/08 05:51:28;;;;;;;;;;;20.10;67.00;;;;;;5054468;28;1051;-69
2022/06/08 05:53:54;;;;;;;;;;;20.10;66.90;;;;;;5036525;28;1188;-70
2022/06/08 05:56:19;;;;;;;;;;;20.00;67.00;;;;;;5053624;28;1292;-69
2022/06/08 05:58:44;;;;;;;;;;;20.10;66.80;;;;;;5054634;28;744;-69
2022/06/08 06:01:10;;;;;;;;;;;20.10;66.90;;;;;;5053970;28;827;-69
2022/06/08 06:03:35;;;;;;;;;;;20.00;66.80;;;;;;5054110;28;826;-69
2022/06/08 06:06:01;;;;;;;;;;;20.10;66.90;;;;;;5054494;28;1955;-69
2022/06/08 06:08:26;;;;;;;;;;;20.10;67.00;;;;;;5053772;28;1178;-71
2022/06/08 06:10:52;;;;;;;;;;;20.10;67.10;;;;;;5053493;28;942;-69
2022/06/08 06:13:19;;;;;;;;;;;20.00;66.40;;;;;;5054187;28;886;-69
2022/06/08 06:15:45;;;;;;;;;;;20.00;66.40;;;;;;5054064;28;1193;-69
2022/06/08 06:18:11;;;;;;;;;;;20.00;66.30;;;;;;5053707;28;1118;-69
2022/06/08 06:20:36;;;;;;;;;;;20.00;66.40;;;;;;5053497;28;993;-68
2022/06/08 06:23:01;;;;;;;;;;;20.00;66.40;;;;;;5035967;28;1257;-68
2022/06/08 06:25:27;;;;;;;;;;;20.00;66.50;;;;;;5053374;28;1961;-68
2022/06/08 06:27:53;;;;;;;;;;;20.00;66.70;;;;;;5053723;28;1204;-68
2022/06/08 06:30:18;;;;;;;;;;;20.00;67.00;;;;;;5053399;28;868;-67
2022/06/08 06:32:44;;;;;;;;;;;20.00;67.10;;;;;;5053624;28;974;-68
2022/06/08 06:35:21;;;;;;;;;;;20.00;67.20;;;;;;5053580;28;890;-66
2022/06/08 06:37:47;;;;;;;;;;;20.00;67.40;;;;;;5052382;28;1232;-66
2022/06/08 06:40:12;;;;;;;;;;;20.10;67.60;;;;;;5052817;28;1017;-67
2022/06/08 06:42:38;;;;;;;;;;;20.10;67.70;;;;;;5053562;28;807;-68
2022/06/08 06:45:03;;;;;;;;;;;20.10;67.80;;;;;;5053445;28;1906;-70
2022/06/08 06:47:29;;;;;;;;;;;20.00;67.70;;;;;;5053194;28;1231;-68
2022/06/08 06:49:56;;;;;;;;;;;20.10;67.80;;;;;;5053103;28;1042;-69
2022/06/08 06:52:21;;;;;;;;;;;20.10;67.80;;;;;;5053742;28;855;-68
2022/06/08 06:54:47;;;;;;;;;;;20.10;67.80;;;;;;5053943;28;791;-71
2022/06/08 06:57:13;;;;;;;;;;;20.00;67.80;;;;;;5054005;28;1290;-70
2022/06/08 06:59:41;;;;;;;;;;;20.10;68.70;;;;;;5052907;28;879;-70
2022/06/08 07:02:13;;;;;;;;;;;20.10;68.00;;;;;;5053781;28;831;-70
2022/06/08 07:04:39;;;;;;;;;;;20.10;68.10;;;;;;5053962;28;1902;-70
2022/06/08 07:07:04;;;;;;;;;;;20.10;68.20;;;;;;5053742;28;1220;-70
2022/06/08 07:09:30;;;;;;;;;;;20.10;68.00;;;;;;5053651;28;1178;-71
2022/06/08 07:11:55;;;;;;;;;;;20.10;67.80;;;;;;5053555;28;892;-70
2022/06/08 07:14:21;;;;;;;;;;;20.10;67.60;;;;;;5053987;28;876;-70
2022/06/08 07:16:47;;;;;;;;;;;20.10;67.50;;;;;;5053501;28;1268;-70
2022/06/08 07:19:13;;;;;;;;;;;20.10;67.80;;;;;;5053575;28;1146;-70
2022/06/08 07:21:38;;;;;;;;;;;20.10;67.40;;;;;;5051662;28;870;-69
2022/06/08 07:24:04;;;;;;;;;;;20.10;67.50;;;;;;5053749;28;1910;-69
2022/06/08 07:26:29;;;;;;;;;;;20.10;67.60;;;;;;5053646;28;1232;-69
2022/06/08 07:28:55;;;;;;;;;;;20.20;67.40;;;;;;5053546;28;886;-69
2022/06/08 07:31:22;;;;;;;;;;;20.20;67.20;;;;;;5053423;28;1005;-69
2022/06/08 07:33:47;;;;;;;;;;;20.20;66.50;;;;;;5035697;28;820;-69
2022/06/08 07:36:13;;;;;;;;;;;20.20;66.90;;;;;;5053302;28;1698;-70
2022/06/08 07:38:38;;;;;;;;;;;20.20;66.70;;;;;;5035526;28;1092;-69
2022/06/08 07:41:04;;;;;;;;;;;20.20;66.60;;;;;;5053071;28;990;-70
2022/06/08 07:43:29;;;;;;;;;;;20.20;66.90;;;;;;5053395;28;803;-70
2022/06/08 07:45:55;;;;;;;;;;;20.20;66.50;;;;;;5053299;28;1906;-69
2022/06/08 07:51:04;;;;;;;;;;;20.20;66.50;;;;;;5052951;28;669;-70
2022/06/08 07:53:30;;;;;;;;;;;20.20;66.60;;;;;;5053103;28;1009;-70
2022/06/08 07:55:55;;;;;;;;;;;20.20;66.70;;;;;;5052949;28;1185;-70
2022/06/08 07:58:21;;;;;;;;;;;20.30;66.70;;;;;;5052965;28;834;-70
2022/06/08 08:00:49;;;;;;;;;;;20.30;66.70;;;;;;5052755;28;898;-70
2022/06/08 08:03:15;;;;;;;;;;;20.30;67.00;;;;;;5051501;28;831;-70
2022/06/08 08:05:41;;;;;;;;;;;20.20;66.00;;;;;;5051781;28;1907;-70
2022/06/08 08:08:06;;;;;;;;;;;20.30;66.80;;;;;;5052648;28;1221;-70
2022/06/08 08:10:32;;;;;;;;;;;20.30;66.50;;;;;;5052781;28;823;-71
2022/06/08 08:12:57;;;;;;;;;;;20.30;66.20;;;;;;5052651;28;827;-70
2022/06/08 08:15:23;;;;;;;;;;;20.30;65.90;;;;;;5052920;28;1107;-70
2022/06/08 08:17:48;;;;;;;;;;;20.30;66.60;;;;;;5034828;28;1218;-70
2022/06/08 08:20:14;;;;;;;;;;;20.30;65.60;;;;;;5052183;28;1009;-70
2022/06/08 08:22:40;;;;;;;;;;;20.30;65.20;;;;;;5052575;28;1009;-70
2022/06/08 08:25:06;;;;;;;;;;;20.30;65.20;;;;;;5052562;28;1898;-70
2022/06/08 08:27:31;;;;;;;;;;;20.30;64.80;;;;;;5052714;28;1171;-70
2022/06/08 08:29:57;;;;;;;;;;;20.30;64.30;;;;;;5052531;28;1186;-70
2022/06/08 08:32:22;;;;;;;;;;;20.30;64.40;;;;;;5054032;28;840;-70
2022/06/08 08:34:47;;;;;;;;;;;20.40;64.30;;;;;;5056448;28;791;-70
2022/06/08 08:37:13;;;;;;;;;;;20.40;64.20;;;;;;5056564;28;1258;-70
2022/06/08 08:39:38;;;;;;;;;;;20.40;64.00;;;;;;5056581;28;1073;-70
2022/06/08 08:42:22;;;;;;;;;;;20.40;64.10;;;;;;5056411;28;795;-70
2022/06/08 08:44:48;;;;;;;;;;;20.40;64.50;;;;;;5041305;28;1890;-70
2022/06/08 08:47:25;;;;;;;;;;;20.40;64.70;;;;;;5056338;28;1189;-70
2022/06/08 08:49:52;;;;;;;;;;;20.40;64.90;;;;;;5047625;28;1257;-70
2022/06/08 08:52:21;;;;;;;;;;;20.40;64.90;;;;;;5055333;28;1179;-71
2022/06/08 08:54:50;;;;;;;;;;;20.40;64.90;;;;;;5055931;28;1054;-70
2022/06/08 08:57:18;;;;;;;;;;;20.40;65.00;;;;;;5045392;28;1201;-71
2022/06/08 08:59:44;;;;;;;;;;;20.50;64.90;;;;;;5054609;28;837;-70
2022/06/08 09:03:14;;;;;;;;;;;20.40;65.00;;;;;;5038056;28;1290;-70
2022/06/08 09:05:12;;;;;;;;;;;20.40;65.20;;;;;;5052684;28;2212;-70
2022/06/08 09:07:37;;;;;;;;;;;20.40;65.10;;;;;;5053719;28;1746;-70
2022/06/08 09:10:03;;;;;;;;;;;20.50;65.20;;;;;;5053972;28;1970;-69
2022/06/08 09:12:28;;;;;;;;;;;20.50;65.30;;;;;;5055746;28;1111;-70
2022/06/08 09:14:58;;;;;;;;;;;20.50;65.20;;;;;;5054947;28;1159;-70
2022/06/08 09:17:52;;;;;;;;;;;20.50;65.10;;;;;;5053583;28;2104;-70
2022/06/08 09:20:22;;;;;;;;;;;20.50;65.10;;;;;;5043273;28;1942;-69
2022/06/08 09:22:48;;;;;;;;;;;20.40;65.30;;;;;;5046552;28;2858;-70
2022/06/08 09:25:23;;;;;;;;;;;20.40;65.40;;;;;;5057926;28;1955;-71
2022/06/08 09:27:49;;;;;;;;;;;20.50;65.60;;;;;;5046722;28;1354;-69
2022/06/08 09:30:16;;;;;;;;;;;20.40;65.70;;;;;;5054305;28;799;-70
2022/06/08 09:32:44;;;;;;;;;;;20.40;66.40;;;;;;5053697;28;965;-71
2022/06/08 09:35:28;;;;;;;;;;;20.40;65.70;;;;;;5046284;28;1694;-67
2022/06/08 09:38:02;;;;;;;;;;;20.40;65.30;;;;;;5054208;28;1169;-69
2022/06/08 09:40:46;;;;;;;;;;;20.40;65.30;;;;;;5053610;28;853;-69
2022/06/08 09:43:20;;;;;;;;;;;20.40;65.00;;;;;;5049126;28;2283;-69
2022/06/08 09:45:49;;;;;;;;;;;20.50;64.90;;;;;;5054198;28;1890;-70
2022/06/08 09:51:29;;;;;;;;;;;20.50;64.30;;;;;;5053429;28;2177;-70
2022/06/08 09:54:12;;;;;;;;;;;20.50;64.40;;;;;;5045984;28;1083;-71
2022/06/08 09:56:56;;;;;;;;;;;20.50;64.50;;;;;;5053002;28;1299;-71
2022/06/08 09:59:28;;;;;;;;;;;20.50;64.50;;;;;;5054198;28;836;-67
2022/06/08 10:02:12;;;;;;;;;;;20.50;64.50;;;;;;5054076;28;891;-69
2022/06/08 10:04:39;;;;;;;;;;;20.50;64.40;;;;;;5053935;28;1918;-69
2022/06/08 10:07:04;;;;;;;;;;;20.50;64.20;;;;;;5053464;28;1258;-71
2022/06/08 10:09:30;;;;;;;;;;;20.50;64.10;;;;;;5051021;28;2224;-71
2022/06/08 10:11:58;;;;;;;;;;;20.60;63.90;;;;;;5053343;28;1548;-72
2022/06/08 10:14:36;;;;;;;;;;;20.60;64.10;;;;;;5054390;28;1090;-69
2022/06/08 10:17:20;;;;;;;;;;;20.60;64.30;;;;;;5054445;28;1262;-71
2022/06/08 10:19:51;;;;;;;;;;;20.60;64.30;;;;;;5053396;28;1233;-71
2022/06/08 10:22:17;;;;;;;;;;;20.60;64.00;;;;;;5053993;28;931;-69
2022/06/08 10:24:47;;;;;;;;;;;20.60;64.20;;;;;;5072056;28;1945;-69
2022/06/08 10:27:29;;;;;;;;;;;20.60;64.10;;;;;;5068859;28;1219;-69
2022/06/08 10:30:01;;;;;;;;;;;20.60;64.00;;;;;;5068102;28;878;-69
2022/06/08 10:32:30;;;;;;;;;;;20.60;64.10;;;;;;5069149;28;1024;-70
2022/06/08 10:34:55;;;;;;;;;;;20.60;64.30;;;;;;5068926;28;939;-69
2022/06/08 10:37:27;;;;;;;;;;;20.60;64.10;;;;;;5053753;28;1195;-69
2022/06/08 10:39:52;;;;;;;;;;;20.60;64.30;;;;;;5053427;28;804;-69
2022/06/08 10:42:42;;;;;;;;;;;20.60;64.50;;;;;;5053607;28;934;-70
2022/06/08 10:45:20;;;;;;;;;;;20.60;64.50;;;;;;5066426;28;1902;-70
2022/06/08 10:47:54;;;;;;;;;;;20.60;63.90;;;;;;5053428;28;1201;-70
2022/06/08 10:50:27;;;;;;;;;;;20.70;63.60;;;;;;5052765;28;835;-69
2022/06/08 10:52:53;;;;;;;;;;;20.70;63.50;;;;;;5053396;28;851;-70
2022/06/08 10:55:18;;;;;;;;;;;20.70;63.10;;;;;;5052348;28;1036;-70
2022/06/08 10:57:50;;;;;;;;;;;20.70;62.80;;;;;;5052975;28;1278;-70
2022/06/08 11:00:19;;;;;;;;;;;20.70;62.60;;;;;;5051352;28;1367;-70
2022/06/08 11:02:46;;;;;;;;;;;20.70;62.70;;;;;;5052961;28;962;-70
2022/06/08 11:05:15;;;;;;;;;;;20.70;62.80;;;;;;5052630;28;1907;-69
2022/06/08 11:07:59;;;;;;;;;;;20.70;62.80;;;;;;5051700;28;1339;-69
2022/06/08 11:10:53;;;;;;;;;;;20.70;62.80;;;;;;5032753;28;895;-73
2022/06/08 11:13:24;;;;;;;;;;;20.70;63.00;;;;;;5086307;22;2044;-72
2022/06/08 11:15:55;;;;;;;;;;;20.70;62.90;;;;;;5093752;28;1229;-71
2022/06/08 11:18:23;;;;;;;;;;;20.70;62.50;;;;;;5063071;28;1463;-71
2022/06/08 11:20:56;;;;;;;;;;;20.70;62.40;;;;;;5055799;28;957;-72
2022/06/08 11:23:23;;;;;;;;;;;20.70;62.30;;;;;;5039105;28;1693;-72
2022/06/08 11:26:12;;;;;;;;;;;20.70;62.30;;;;;;5055765;28;1979;-72
2022/06/08 11:28:43;;;;;;;;;;;20.70;62.40;;;;;;5055817;28;966;-72
2022/06/08 11:31:11;;;;;;;;;;;20.70;62.70;;;;;;5073549;28;873;-72
2022/06/08 11:33:56;;;;;;;;;;;20.70;62.70;;;;;;5056096;28;1295;-70
2022/06/08 11:36:35;;;;;;;;;;;20.70;62.80;;;;;;5073494;28;839;-70
2022/06/08 11:39:04;;;;;;;;;;;20.70;63.80;;;;;;5055871;28;787;-69
2022/06/08 11:41:30;;;;;;;;;;;20.70;63.20;;;;;;5055089;28;1287;-69
2022/06/08 11:43:56;;;;;;;;;;;20.70;63.10;;;;;;5073538;28;803;-71
2022/06/08 11:46:27;;;;;;;;;;;20.70;63.10;;;;;;5076596;28;2318;-71
2022/06/08 11:48:54;;;;;;;;;;;20.70;62.90;;;;;;5091968;28;1371;-70
2022/06/08 11:51:36;;;;;;;;;;;20.70;62.30;;;;;;5086489;28;1150;-69
2022/06/08 11:54:18;;;;;;;;;;;20.70;61.70;;;;;;5067972;28;1119;-68
2022/06/08 11:56:51;;;;;;;;;;;20.70;61.60;;;;;;5074814;28;1342;-67
2022/06/08 11:59:17;;;;;;;;;;;20.70;61.20;;;;;;5075316;28;981;-70
2022/06/08 12:01:43;;;;;;;;;;;20.70;61.10;;;;;;5092904;28;1217;-70
2022/06/08 12:04:21;;;;;;;;;;;20.70;61.00;;;;;;5093144;28;1902;-70
2022/06/08 12:06:46;;;;;;;;;;;20.70;60.60;;;;;;5071749;28;2028;-70
2022/06/08 12:09:13;;;;;;;;;;;20.70;60.20;;;;;;5067668;28;1611;-71
2022/06/08 12:11:39;;;;;;;;;;;20.70;59.90;;;;;;5063472;28;1383;-70
2022/06/08 12:14:23;;;;;;;;;;;20.70;60.10;;;;;;5066668;28;1603;-70
2022/06/08 12:16:58;;;;;;;;;;;20.70;60.50;;;;;;5091331;28;847;-70
2022/06/08 12:19:24;;;;;;;;;;;20.70;61.20;;;;;;5079651;28;1466;-70
2022/06/08 12:22:05;;;;;;;;;;;20.80;61.40;;;;;;5037804;28;1237;-70
2022/06/08 12:24:31;;;;;;;;;;;20.80;61.50;;;;;;5084193;28;1963;-70
2022/06/08 12:27:16;;;;;;;;;;;20.80;61.70;;;;;;5074105;28;1465;-70
2022/06/08 12:29:54;;;;;;;;;;;20.80;61.70;;;;;;5072764;28;819;-70
2022/06/08 12:32:24;;;;;;;;;;;20.80;61.50;;;;;;5072578;28;1212;-70
2022/06/08 12:34:50;;;;;;;;;;;20.80;61.50;;;;;;5055044;28;861;-70
2022/06/08 12:37:30;;;;;;;;;;;20.80;61.80;;;;;;5072880;28;863;-71
2022/06/08 12:39:56;;;;;;;;;;;20.80;61.40;;;;;;5072515;28;831;-71
2022/06/08 12:42:23;;;;;;;;;;;20.80;59.40;;;;;;5054646;28;1232;-71
2022/06/08 12:44:52;;;;;;;;;;;20.80;59.10;;;;;;5072652;28;1902;-70
2022/06/08 12:47:17;;;;;;;;;;;20.90;59.50;;;;;;5072661;28;788;-70
2022/06/08 12:49:44;;;;;;;;;;;20.90;59.50;;;;;;5072781;28;814;-70
2022/06/08 12:52:20;;;;;;;;;;;20.90;60.00;;;;;;5054577;28;1267;-70
2022/06/08 12:54:45;;;;;;;;;;;20.90;59.70;;;;;;5038155;28;1176;-70
2022/06/08 12:57:14;;;;;;;;;;;20.90;60.00;;;;;;5072517;28;1020;-70
2022/06/08 12:59:41;;;;;;;;;;;20.90;60.40;;;;;;5054603;28;1405;-70
2022/06/08 13:02:13;;;;;;;;;;;20.90;60.70;;;;;;5054214;28;1176;-70
2022/06/08 13:04:39;;;;;;;;;;;20.90;60.80;;;;;;5054752;28;1906;-70
2022/06/08 13:07:04;;;;;;;;;;;20.90;61.00;;;;;;5038071;28;1434;-70
2022/06/08 13:09:29;;;;;;;;;;;20.90;60.80;;;;;;5072425;28;1454;-70
2022/06/08 13:11:56;;;;;;;;;;;20.90;61.00;;;;;;5072183;28;1224;-70
2022/06/08 13:14:22;;;;;;;;;;;20.90;61.10;;;;;;5038110;28;1066;-70
2022/06/08 13:16:47;;;;;;;;;;;20.90;61.10;;;;;;5072586;28;859;-70
2022/06/08 13:19:13;;;;;;;;;;;20.90;61.00;;;;;;5086609;28;1426;-70
2022/06/08 13:21:39;;;;;;;;;;;20.80;61.00;;;;;;5096398;28;1305;-70
2022/06/08 13:24:05;;;;;;;;;;;20.80;61.10;;;;;;5096320;28;965;-70
2022/06/08 13:26:31;;;;;;;;;;;20.90;61.20;;;;;;5062910;28;1906;-70
2022/06/08 13:28:57;;;;;;;;;;;20.80;61.80;;;;;;5058011;28;910;-70
2022/06/08 13:31:23;;;;;;;;;;;20.80;60.90;;;;;;5075907;28;893;-70
2022/06/08 13:34:04;;;;;;;;;;;20.80;61.10;;;;;;5076063;28;1201;-70
2022/06/08 13:36:45;;;;;;;;;;;20.80;61.40;;;;;;5060700;28;894;-70
2022/06/08 13:39:14;;;;;;;;;;;20.80;61.20;;;;;;5076448;28;808;-70
2022/06/08 13:41:39;;;;;;;;;;;20.80;61.70;;;;;;5076251;28;1198;-70
2022/06/08 13:44:09;;;;;;;;;;;20.80;61.90;;;;;;5075937;28;718;-71
2022/06/08 13:46:34;;;;;;;;;;;20.80;62.20;;;;;;5075883;28;866;-70
2022/06/08 13:49:02;;;;;;;;;;;20.80;62.10;;;;;;5041077;28;902;-71
2022/06/08 13:51:27;;;;;;;;;;;20.80;62.10;;;;;;5057949;28;1197;-70
2022/06/08 13:53:53;;;;;;;;;;;20.80;61.70;;;;;;5075438;28;906;-73
2022/06/08 13:56:18;;;;;;;;;;;20.80;61.30;;;;;;5041339;28;2288;-70
2022/06/08 13:58:44;;;;;;;;;;;20.80;61.60;;;;;;5085709;28;1639;-71
2022/06/08 14:01:30;;;;;;;;;;;20.80;61.60;;;;;;5089007;28;1153;-70
2022/06/08 14:03:55;;;;;;;;;;;20.80;61.40;;;;;;5068888;28;1244;-70
2022/06/08 14:15:00;;;;;;;;;;;20.80;61.90;;;;;;5059856;28;627;-69
2022/06/08 14:17:26;;;;;;;;;;;20.80;61.40;;;;;;5057040;28;1073;-69
2022/06/08 14:19:55;;;;;;;;;;;20.80;61.50;;;;;;5073811;28;1147;-70
2022/06/08 14:22:22;;;;;;;;;;;20.80;61.40;;;;;;5076983;28;1294;-69
2022/06/08 14:24:48;;;;;;;;;;;20.80;61.10;;;;;;5075813;28;1937;-69
2022/06/08 14:27:14;;;;;;;;;;;20.80;60.80;;;;;;5056890;28;911;-69
2022/06/08 14:29:40;;;;;;;;;;;20.80;61.40;;;;;;5056628;28;1080;-68
2022/06/08 14:32:19;;;;;;;;;;;20.80;60.80;;;;;;5056550;28;1294;-68
2022/06/08 14:34:45;;;;;;;;;;;20.80;60.80;;;;;;5056698;28;915;-69
2022/06/08 14:37:11;;;;;;;;;;;20.80;61.00;;;;;;5039920;28;1242;-69
2022/06/08 14:39:37;;;;;;;;;;;20.80;60.60;;;;;;5056476;28;1355;-69
2022/06/08 14:42:03;;;;;;;;;;;20.80;60.10;;;;;;5074386;28;1282;-69
2022/06/08 14:44:29;;;;;;;;;;;20.80;59.80;;;;;;5056558;28;1901;-70
2022/06/08 14:46:56;;;;;;;;;;;20.80;59.50;;;;;;5040113;28;1082;-69
2022/06/08 14:49:25;;;;;;;;;;;20.80;59.30;;;;;;5074171;28;830;-69
2022/06/08 14:51:52;;;;;;;;;;;20.80;58.70;;;;;;5056171;28;1282;-69
2022/06/08 14:54:19;;;;;;;;;;;20.80;58.60;;;;;;5056577;28;813;-68
2022/06/08 14:56:45;;;;;;;;;;;20.80;58.60;;;;;;5056457;28;922;-69
2022/06/08 14:59:12;;;;;;;;;;;20.90;58.80;;;;;;5039545;28;1152;-71